Time;durP1;ratioP1;P1;durP2;ratioP2;P2;SDS_P1;SDS_P2;PMS_P1;PMS_P2;Temp;Humidity;BMP_temperature;BMP_pressure;BME280_temperature;BME280_humidity;BME280_pressure;Samples;Min_cycle;Max_cycle;Signal;HPM_P1;HPM_P2
2023/03/29 00:01:58;;;;;;;15.70;6.60;;;;;;;-2.30;60.92;100678.96;131095;1250;108648;-73
2023/03/29 00:05:05;;;;;;;14.40;6.60;;;;;;;-2.31;60.50;100675.70;131151;1250;107500;-73
2023/03/29 00:08:13;;;;;;;14.60;6.30;;;;;;;-2.32;60.79;100671.40;130885;1250;254349;-73
2023/03/29 00:11:19;;;;;;;13.80;6.30;;;;;;;-2.34;61.30;100669.20;130995;1257;107556;-76
2023/03/29 00:14:25;;;;;;;14.30;6.70;;;;;;;-2.36;61.60;100671.55;130984;1257;107437;-74
2023/03/29 00:17:32;;;;;;;13.20;6.20;;;;;;;-2.42;61.60;100672.62;130950;1253;108537;-74
2023/03/29 00:20:37;;;;;;;13.30;6.00;;;;;;;-2.43;61.45;100677.20;130986;1255;107590;-74
2023/03/29 00:23:43;;;;;;;10.50;5.50;;;;;;;-2.43;61.43;100678.40;130949;1254;106641;-73
2023/03/29 00:26:49;;;;;;;12.50;5.50;;;;;;;-2.42;61.42;100681.86;130956;1250;108169;-73
2023/03/29 00:29:55;;;;;;;15.80;5.70;;;;;;;-2.42;61.19;100684.13;130973;1253;107503;-75
2023/03/29 00:33:00;;;;;;;14.20;5.70;;;;;;;-2.41;61.61;100687.21;131058;1253;108057;-74
2023/03/29 00:36:08;;;;;;;13.40;6.00;;;;;;;-2.42;61.96;100692.13;131211;1251;107504;-72
2023/03/29 00:39:13;;;;;;;12.90;5.20;;;;;;;-2.43;62.21;100690.98;131275;1251;107612;-73
2023/03/29 00:42:20;;;;;;;13.90;5.70;;;;;;;-2.44;61.95;100691.55;130811;1254;107542;-73
2023/03/29 00:45:29;;;;;;;13.60;5.60;;;;;;;-2.45;62.34;100694.17;131087;1257;107271;-73
2023/03/29 00:48:34;;;;;;;13.40;5.60;;;;;;;-2.46;62.73;100688.65;130979;1254;106619;-74
2023/03/29 00:51:41;;;;;;;12.00;6.00;;;;;;;-2.47;62.48;100691.85;130886;1251;109309;-75
2023/03/29 00:54:48;;;;;;;12.40;5.70;;;;;;;-2.44;62.79;100689.43;131226;1254;107533;-73
2023/03/29 00:57:55;;;;;;;11.70;5.00;;;;;;;-2.37;62.81;100684.28;131174;1255;106533;-73
2023/03/29 01:01:07;;;;;;;9.40;4.10;;;;;;;-2.27;62.49;100682.34;130896;1251;107496;-73
2023/03/29 01:04:18;;;;;;;13.20;4.60;;;;;;;-2.20;63.06;100679.43;131203;1251;107442;-73
2023/03/29 01:07:31;;;;;;;11.80;4.60;;;;;;;-2.14;62.49;100681.67;131119;1254;107613;-73
2023/03/29 01:10:43;;;;;;;9.90;4.70;;;;;;;-2.12;62.89;100679.48;130973;1255;107240;-72
2023/03/29 01:13:57;;;;;;;12.80;5.00;;;;;;;-2.13;63.15;100678.83;130962;1256;107564;-73
2023/03/29 01:17:02;;;;;;;11.50;5.00;;;;;;;-2.18;63.18;100676.23;130956;1256;107433;-72
2023/03/29 01:20:18;;;;;;;12.40;4.60;;;;;;;-2.21;62.88;100675.11;131044;1250;107873;-73
2023/03/29 01:23:57;;;;;;;8.60;4.10;;;;;;;-2.21;62.53;100674.08;131010;1251;107614;-72
2023/03/29 01:27:10;;;;;;;8.70;4.00;;;;;;;-2.23;63.03;100672.59;130638;1254;107852;-73
2023/03/29 01:30:19;;;;;;;11.50;4.40;;;;;;;-2.25;62.81;100670.91;130628;1257;107292;-72
2023/03/29 01:33:30;;;;;;;9.10;4.20;;;;;;;-2.29;63.39;100675.26;130578;1254;107346;-72
2023/03/29 01:36:44;;;;;;;8.60;4.10;;;;;;;-2.34;62.97;100668.86;130653;1255;107371;-74
2023/03/29 01:39:50;;;;;;;9.60;4.10;;;;;;;-2.38;63.35;100667.77;130655;1259;107365;-74
2023/03/29 01:43:05;;;;;;;9.40;4.50;;;;;;;-2.41;63.44;100666.50;130540;1258;106545;-73
2023/03/29 01:46:19;;;;;;;8.30;3.90;;;;;;;-2.45;63.41;100672.91;130889;1257;107572;-73
2023/03/29 01:49:31;;;;;;;11.70;4.70;;;;;;;-2.46;63.66;100673.30;130933;1250;107487;-74
2023/03/29 01:52:42;;;;;;;12.30;4.50;;;;;;;-2.49;64.17;100671.17;131066;1250;107631;-73
2023/03/29 01:55:52;;;;;;;9.70;4.50;;;;;;;-2.51;63.81;100672.84;131121;1255;107498;-73
2023/03/29 01:59:02;;;;;;;9.20;4.00;;;;;;;-2.54;63.95;100675.21;131154;1257;107995;-73
2023/03/29 02:02:13;;;;;;;11.30;3.90;;;;;;;-2.57;63.87;100674.24;131246;1254;107567;-73
2023/03/29 02:05:22;;;;;;;10.60;4.40;;;;;;;-2.60;63.99;100672.81;131112;1257;108651;-73
2023/03/29 02:08:29;;;;;;;10.60;3.60;;;;;;;-2.62;64.03;100671.66;130858;1258;107473;-73
2023/03/29 02:11:37;;;;;;;9.60;4.20;;;;;;;-2.62;63.93;100674.61;131152;1256;107504;-73
2023/03/29 02:14:42;;;;;;;10.00;4.70;;;;;;;-2.66;64.27;100670.42;131110;1253;107308;-72
2023/03/29 02:17:49;;;;;;;8.60;4.10;;;;;;;-2.68;64.26;100673.30;131114;1256;107568;-71
2023/03/29 02:20:57;;;;;;;9.90;4.30;;;;;;;-2.70;64.31;100671.98;130882;1257;107216;-73
2023/03/29 02:24:08;;;;;;;8.40;4.20;;;;;;;-2.72;64.60;100670.83;131138;1256;107442;-73
2023/03/29 02:27:13;;;;;;;9.70;3.90;;;;;;;-2.73;64.79;100670.88;130913;1254;108815;-73
2023/03/29 02:30:21;;;;;;;9.80;3.90;;;;;;;-2.71;64.35;100668.73;131043;1255;107506;-73
2023/03/29 02:33:31;;;;;;;10.10;4.20;;;;;;;-2.66;64.86;100669.58;130922;1250;107633;-73
2023/03/29 02:36:41;;;;;;;72.60;24.20;;;;;;;-2.59;64.40;100668.06;131111;1256;107506;-72
2023/03/29 02:39:50;;;;;;;190.30;57.70;;;;;;;-2.50;64.42;100671.39;130995;1251;107628;-74
2023/03/29 02:42:57;;;;;;;68.90;24.90;;;;;;;-2.44;64.27;100675.34;131310;1254;108764;-75
2023/03/29 02:46:05;;;;;;;1000.00;306.60;;;;;;;-2.43;64.15;100670.91;131240;1250;107517;-72
2023/03/29 02:49:11;;;;;;;124.40;42.60;;;;;;;-2.41;64.30;100675.89;130971;1250;106563;-73
2023/03/29 02:52:22;;;;;;;231.90;57.50;;;;;;;-2.42;64.80;100674.39;131302;1255;107527;-72
2023/03/29 02:55:33;;;;;;;69.30;21.70;;;;;;;-2.47;64.26;100680.00;131006;1255;107233;-71
2023/03/29 02:58:39;;;;;;;279.50;72.20;;;;;;;-2.51;64.57;100684.83;131034;1250;107488;-71
2023/03/29 03:01:45;;;;;;;93.90;30.00;;;;;;;-2.53;64.26;100686.81;131022;1251;107213;-72
2023/03/29 03:04:52;;;;;;;261.60;79.30;;;;;;;-2.55;64.46;100684.47;131188;1251;107430;-71
2023/03/29 03:07:58;;;;;;;103.20;37.80;;;;;;;-2.57;64.27;100685.94;131021;1255;107467;-70
2023/03/29 03:11:03;;;;;;;27.20;11.60;;;;;;;-2.63;64.66;100685.27;130881;1256;107568;-70
2023/03/29 03:14:09;;;;;;;155.40;46.90;;;;;;;-2.66;64.58;100684.89;130978;1256;108203;-72
2023/03/29 03:17:17;;;;;;;121.70;46.40;;;;;;;-2.72;64.75;100688.08;131261;1256;107466;-71
2023/03/29 03:20:25;;;;;;;33.70;15.20;;;;;;;-2.77;64.21;100687.05;131105;1257;107511;-72
2023/03/29 03:23:30;;;;;;;13.40;6.60;;;;;;;-2.79;64.44;100688.14;131154;1256;107582;-72
2023/03/29 03:26:37;;;;;;;16.90;8.20;;;;;;;-2.80;64.23;100689.41;130939;1251;107512;-71
2023/03/29 03:29:44;;;;;;;212.50;89.70;;;;;;;-2.82;64.53;100691.58;131013;1256;107604;-71
2023/03/29 03:33:22;;;;;;;94.90;39.80;;;;;;;-2.83;64.44;100698.21;130846;1251;107234;-71
2023/03/29 03:36:54;;;;;;;204.00;69.60;;;;;;;-2.84;64.51;100698.64;130875;1254;106445;-71
2023/03/29 03:40:00;;;;;;;59.50;22.90;;;;;;;-2.86;64.44;100699.73;131059;1255;107556;-72
2023/03/29 03:43:06;;;;;;;19.80;9.30;;;;;;;-2.89;64.30;100700.20;130938;1254;107525;-72
2023/03/29 03:46:12;;;;;;;166.10;48.30;;;;;;;-2.90;64.24;100697.64;131072;1261;107608;-73
2023/03/29 03:49:18;;;;;;;75.80;24.20;;;;;;;-2.94;64.38;100697.94;130936;1256;106863;-71
2023/03/29 03:52:24;;;;;;;24.90;9.10;;;;;;;-2.98;64.47;100697.56;131120;1256;107546;-73
2023/03/29 03:55:31;;;;;;;139.90;51.90;;;;;;;-3.01;64.38;100693.50;131025;1263;107515;-73
2023/03/29 03:58:59;;;;;;;121.60;39.30;;;;;;;-3.03;64.23;100699.49;131137;1254;106665;-71
2023/03/29 04:02:06;;;;;;;29.40;12.00;;;;;;;-3.04;64.37;100703.19;131201;1256;107140;-72
2023/03/29 04:05:15;;;;;;;199.90;75.70;;;;;;;-3.05;64.34;100700.98;131118;1266;107634;-72
2023/03/29 04:08:21;;;;;;;240.40;69.00;;;;;;;-3.06;64.19;100696.64;131129;1263;107532;-72
2023/03/29 04:11:52;;;;;;;69.90;25.90;;;;;;;-3.09;64.12;100695.02;130859;1253;107415;-72
2023/03/29 04:14:58;;;;;;;199.10;72.90;;;;;;;-3.11;64.27;100701.17;131202;1253;107551;-72
2023/03/29 04:18:06;;;;;;;74.50;29.20;;;;;;;-3.13;64.45;100701.41;131161;1253;107563;-72
2023/03/29 04:21:21;;;;;;;22.30;9.30;;;;;;;-3.12;64.31;100700.70;131093;1253;107486;-72
2023/03/29 04:24:27;;;;;;;15.30;6.40;;;;;;;-3.10;64.31;100700.98;131065;1257;106078;-73
2023/03/29 04:27:53;;;;;;;16.00;6.10;;;;;;;-3.06;64.34;100702.75;131144;1254;107373;-71
2023/03/29 04:31:21;;;;;;;10.90;4.60;;;;;;;-3.04;64.29;100704.23;131265;1264;107450;-72
2023/03/29 04:34:47;;;;;;;16.30;8.20;;;;;;;-2.99;64.43;100705.27;131053;1254;107197;-73
2023/03/29 04:37:53;;;;;;;13.40;4.80;;;;;;;-2.98;64.49;100702.79;131062;1253;107519;-71
2023/03/29 04:41:02;;;;;;;13.40;5.50;;;;;;;-2.94;64.27;100704.02;131003;1256;105696;-72
2023/03/29 04:44:34;;;;;;;8.70;3.90;;;;;;;-2.93;64.19;100701.73;131025;1253;107534;-73
2023/03/29 04:47:42;;;;;;;10.90;4.30;;;;;;;-2.90;64.21;100704.92;131019;1253;107505;-72
2023/03/29 04:50:53;;;;;;;;;;;;;;;-2.86;63.97;100711.23;131263;1253;107442;-72
2023/03/29 04:53:59;;;;;;;10.20;4.00;;;;;;;-2.82;64.25;100710.36;131192;1253;107501;-72
2023/03/29 04:57:05;;;;;;;9.20;4.40;;;;;;;-2.71;63.96;100709.13;131064;1253;107449;-73
2023/03/29 05:00:26;;;;;;;9.60;4.70;;;;;;;-2.58;64.23;100711.73;131018;1254;108621;-72
2023/03/29 05:03:44;;;;;;;11.30;5.30;;;;;;;-2.44;63.81;100712.27;131196;1253;107504;-72
2023/03/29 05:07:03;;;;;;;10.30;4.90;;;;;;;-2.33;63.99;100715.16;131176;1253;107492;-72
2023/03/29 05:10:10;;;;;;;11.50;5.50;;;;;;;-2.25;63.86;100709.77;131149;1262;107457;-72
2023/03/29 05:13:16;;;;;;;9.90;5.20;;;;;;;-2.16;63.74;100708.55;131152;1257;108705;-71
2023/03/29 05:16:23;;;;;;;11.60;5.10;;;;;;;-2.04;63.63;100712.45;131022;1251;109337;-72
2023/03/29 05:19:29;;;;;;;11.20;4.90;;;;;;;-1.96;63.62;100713.90;131025;1263;107505;-71
2023/03/29 05:22:37;;;;;;;9.40;4.50;;;;;;;-1.92;63.72;100713.16;131035;1250;107452;-72
2023/03/29 05:25:45;;;;;;;11.60;4.60;;;;;;;-1.87;63.26;100711.77;130985;1256;107453;-72
2023/03/29 05:28:51;;;;;;;11.00;4.90;;;;;;;-1.83;63.26;100712.65;131013;1253;108546;-71
2023/03/29 05:31:57;;;;;;;10.80;5.30;;;;;;;-1.79;63.06;100711.95;131110;1254;107503;-69
2023/03/29 05:35:02;;;;;;;10.90;5.60;;;;;;;-1.74;63.01;100713.66;131154;1256;107997;-69
2023/03/29 05:38:08;;;;;;;11.40;6.00;;;;;;;-1.69;63.31;100716.11;130883;1254;107457;-69
2023/03/29 05:41:15;;;;;;;12.50;5.90;;;;;;;-1.64;63.21;100713.76;130938;1254;108039;-69
2023/03/29 05:44:30;;;;;;;10.60;5.00;;;;;;;-1.56;63.05;100714.66;131016;1263;108063;-70
2023/03/29 05:47:43;;;;;;;14.70;5.90;;;;;;;-1.48;63.10;100714.16;131020;1253;107032;-69
2023/03/29 05:50:50;;;;;;;12.20;6.50;;;;;;;-1.43;62.81;100713.96;130969;1272;107792;-68
2023/03/29 05:53:55;;;;;;;13.90;6.20;;;;;;;-1.39;62.88;100719.73;130922;1253;107540;-69
2023/03/29 05:57:01;;;;;;;12.20;5.50;;;;;;;-1.32;62.66;100721.70;130972;1254;108298;-68
2023/03/29 06:00:18;;;;;;;11.50;5.50;;;;;;;-1.26;62.27;100722.98;131139;1251;108033;-70
2023/03/29 06:03:26;;;;;;;10.50;4.80;;;;;;;-1.20;62.08;100722.22;130947;1251;107596;-69
2023/03/29 06:06:34;;;;;;;15.60;5.30;;;;;;;-1.15;62.05;100725.17;130941;1250;109294;-70
2023/03/29 06:09:41;;;;;;;11.50;4.50;;;;;;;-1.09;61.98;100727.52;130952;1251;108610;-69
2023/03/29 06:12:48;;;;;;;9.20;3.70;;;;;;;-1.02;61.80;100730.52;131353;1253;108169;-70
2023/03/29 06:15:54;;;;;;;7.20;3.40;;;;;;;-0.95;60.88;100731.63;131057;1251;107470;-70
2023/03/29 06:18:59;;;;;;;7.50;3.60;;;;;;;-0.91;60.63;100732.13;131038;1251;107599;-69
2023/03/29 06:22:05;;;;;;;6.10;3.20;;;;;;;-0.87;60.52;100728.79;130897;1253;108391;-69
2023/03/29 06:25:14;;;;;;;8.10;3.60;;;;;;;-0.82;60.09;100728.73;131066;1251;107824;-71
2023/03/29 06:28:21;;;;;;;6.60;2.80;;;;;;;-0.76;59.85;100728.66;130945;1253;108083;-70
2023/03/29 06:31:27;;;;;;;5.40;2.90;;;;;;;-0.69;60.08;100734.11;130933;1251;107344;-70
2023/03/29 06:34:33;;;;;;;10.10;3.60;;;;;;;-0.63;60.05;100731.39;131089;1251;107653;-70
2023/03/29 06:37:59;;;;;;;8.40;3.30;;;;;;;-0.52;60.18;100730.55;131134;1253;106738;-72
2023/03/29 06:41:25;;;;;;;7.30;3.10;;;;;;;-0.42;60.14;100732.68;130834;1253;108291;-70
2023/03/29 06:44:56;;;;;;;7.60;3.30;;;;;;;-0.35;58.56;100734.50;130916;1253;108079;-69
2023/03/29 06:48:03;;;;;;;6.00;3.30;;;;;;;-0.28;59.53;100735.91;131249;1253;108107;-69
2023/03/29 06:51:09;;;;;;;8.50;2.90;;;;;;;-0.19;57.46;100737.58;131147;1251;107459;-70
2023/03/29 06:54:15;;;;;;;6.90;2.80;;;;;;;-0.19;56.47;100737.39;131105;1254;107497;-73
2023/03/29 06:57:29;;;;;;;5.70;2.60;;;;;;;-0.11;58.64;100733.33;131285;1251;108044;-69
2023/03/29 07:00:37;;;;;;;5.70;2.90;;;;;;;-0.01;56.74;100731.84;131146;1253;108495;-68
2023/03/29 07:03:48;;;;;;;5.80;3.00;;;;;;;0.04;56.73;100736.13;131127;1254;109174;-71
2023/03/29 07:07:01;;;;;;;6.20;2.90;;;;;;;0.13;57.96;100733.25;131125;1253;108100;-68
2023/03/29 07:10:09;;;;;;;5.00;3.00;;;;;;;0.24;56.99;100735.14;131179;1253;107635;-69
2023/03/29 07:13:34;;;;;;;5.40;2.60;;;;;;;0.34;57.95;100733.06;131052;1253;108302;-70
2023/03/29 07:16:45;;;;;;;8.20;3.50;;;;;;;0.44;56.45;100735.77;131346;1251;108081;-68
2023/03/29 07:20:13;;;;;;;6.50;3.30;;;;;;;0.47;54.16;100731.96;130895;1253;108084;-70
2023/03/29 07:23:27;;;;;;;7.60;3.30;;;;;;;0.49;54.47;100727.46;130819;1253;108118;-70
2023/03/29 07:26:33;;;;;;;7.80;3.30;;;;;;;0.51;54.06;100724.36;131032;1272;107577;-70
2023/03/29 07:29:39;;;;;;;5.80;3.30;;;;;;;0.57;53.77;100723.21;130949;1254;108051;-69
2023/03/29 07:32:46;;;;;;;10.90;5.00;;;;;;;0.68;55.42;100719.87;130901;1272;107797;-70
2023/03/29 07:36:03;;;;;;;7.50;3.50;;;;;;;0.79;55.83;100716.64;131207;1257;108129;-70
2023/03/29 07:39:11;;;;;;;4.60;2.70;;;;;;;0.92;55.66;100716.88;131232;1254;108646;-70
2023/03/29 07:42:18;;;;;;;7.50;3.50;;;;;;;0.99;51.39;100713.69;131041;1253;107597;-70
2023/03/29 07:45:27;;;;;;;6.10;3.50;;;;;;;1.03;52.27;100709.80;131156;1254;107555;-70
2023/03/29 07:48:38;;;;;;;6.40;3.10;;;;;;;1.11;53.23;100707.77;131108;1251;108111;-70
2023/03/29 07:51:48;;;;;;;6.00;2.90;;;;;;;1.22;53.88;100709.86;131298;1263;107592;-68
2023/03/29 07:54:54;;;;;;;4.30;3.00;;;;;;;1.33;54.02;100709.95;131122;1253;107680;-70
2023/03/29 07:58:09;;;;;;;5.50;2.80;;;;;;;1.45;53.43;100709.52;131172;1253;107533;-70
2023/03/29 08:01:15;;;;;;;6.50;2.70;;;;;;;1.52;50.47;100714.36;131049;1254;108058;-70
2023/03/29 08:04:47;;;;;;;8.10;3.20;;;;;;;1.57;50.96;100713.38;131037;1258;108316;-70
2023/03/29 08:07:55;;;;;;;5.20;3.00;;;;;;;1.66;52.46;100710.80;130917;1256;108055;-70
2023/03/29 08:11:11;;;;;;;3.90;2.30;;;;;;;1.77;52.77;100703.38;130860;1256;108107;-70
2023/03/29 08:14:35;;;;;;;4.60;2.70;;;;;;;1.90;51.96;100704.90;130842;1251;107997;-70
2023/03/29 08:18:04;;;;;;;4.90;2.50;;;;;;;1.94;46.49;100705.56;130775;1265;109874;-70
2023/03/29 08:21:13;;;;;;;5.00;2.50;;;;;;;1.91;45.46;100705.20;130870;1256;107351;-70
2023/03/29 08:24:21;;;;;;;5.60;2.90;;;;;;;1.94;48.15;100698.56;130843;1261;107436;-70
2023/03/29 08:27:32;;;;;;;6.10;2.70;;;;;;;2.05;50.25;100697.23;131003;1256;107459;-69
2023/03/29 08:30:39;;;;;;;4.90;2.50;;;;;;;2.12;48.25;100693.81;131018;1251;107463;-69
2023/03/29 08:33:45;;;;;;;5.50;2.80;;;;;;;2.23;50.73;100687.42;131028;1256;109192;-68
2023/03/29 08:37:10;;;;;;;6.50;3.20;;;;;;;2.38;51.10;100680.05;131113;1256;108175;-69
2023/03/29 08:40:25;;;;;;;5.70;3.00;;;;;;;2.51;50.68;100679.10;131057;1256;108195;-70
2023/03/29 08:43:58;;;;;;;6.10;3.00;;;;;;;2.62;50.20;100681.43;131099;1256;107329;-72
2023/03/29 08:47:21;;;;;;;7.10;3.80;;;;;;;2.73;50.31;100681.63;130936;1260;107473;-68
2023/03/29 08:50:33;;;;;;;5.80;3.30;;;;;;;2.80;50.10;100681.39;130971;1258;108030;-70
2023/03/29 08:53:44;;;;;;;5.00;2.70;;;;;;;2.84;50.30;100679.24;130806;1266;108090;-70
2023/03/29 08:57:02;;;;;;;8.90;3.30;;;;;;;2.95;50.70;100677.50;130967;1256;108111;-70
2023/03/29 09:00:24;;;;;;;5.80;3.10;;;;;;;3.03;49.83;100672.61;130956;1256;108028;-70
2023/03/29 09:03:36;;;;;;;5.80;2.90;;;;;;;3.09;50.13;100667.33;131002;1254;107527;-70
2023/03/29 09:06:47;;;;;;;7.50;3.40;;;;;;;3.19;49.10;100673.21;130618;1256;108038;-70
2023/03/29 09:09:58;;;;;;;3.50;2.30;;;;;;;3.24;48.55;100668.55;130892;1257;107472;-69
2023/03/29 09:13:26;;;;;;;5.40;2.80;;;;;;;3.31;50.02;100668.77;130881;1264;107559;-70
2023/03/29 09:16:37;;;;;;;5.30;2.60;;;;;;;3.41;48.89;100664.98;130874;1257;107469;-69
2023/03/29 09:19:51;;;;;;;5.90;3.40;;;;;;;3.42;46.93;100655.97;130958;1257;108502;-70
2023/03/29 09:23:13;;;;;;;5.20;2.60;;;;;;;3.47;46.55;100657.23;131160;1260;108051;-68
2023/03/29 09:26:46;;;;;;;5.40;2.80;;;;;;;3.58;48.00;100650.05;130956;1257;107862;-70
2023/03/29 09:30:15;;;;;;;5.40;2.70;;;;;;;3.67;45.43;100652.30;130926;1252;107447;-71
2023/03/29 09:33:41;;;;;;;4.00;2.30;;;;;;;3.68;48.18;100647.13;130963;1251;107416;-69
2023/03/29 09:37:09;;;;;;;4.30;2.70;;;;;;;3.74;48.76;100643.56;131002;1254;108324;-69
2023/03/29 09:40:19;;;;;;;6.30;3.30;;;;;;;3.88;49.16;100637.69;130753;1258;107520;-70
2023/03/29 09:43:37;;;;;;;4.90;2.70;;;;;;;3.98;48.68;100641.48;130961;1260;107965;-70
2023/03/29 09:46:50;;;;;;;4.70;2.70;;;;;;;4.06;47.22;100637.05;130751;1257;107946;-70
2023/03/29 09:50:02;;;;;;;4.10;2.50;;;;;;;4.07;46.17;100629.95;130872;1257;107507;-70
2023/03/29 09:53:09;;;;;;;6.70;2.90;;;;;;;4.07;43.92;100629.95;131082;1254;107428;-70
2023/03/29 09:56:17;;;;;;;5.90;3.20;;;;;;;4.02;41.77;100632.56;130986;1254;107488;-70
2023/03/29 09:59:49;;;;;;;5.90;3.10;;;;;;;4.00;43.86;100623.52;131045;1256;108200;-68
2023/03/29 10:02:58;;;;;;;5.80;3.10;;;;;;;4.06;44.20;100625.42;131175;1253;107444;-70
2023/03/29 10:06:14;;;;;;;5.30;2.60;;;;;;;4.16;44.98;100618.96;131092;1264;107564;-70
2023/03/29 10:09:25;;;;;;;5.10;2.90;;;;;;;4.32;45.44;100620.16;130852;1252;107585;-70
2023/03/29 10:12:36;;;;;;;3.50;2.00;;;;;;;4.42;45.59;100621.76;131087;1251;106559;-69
2023/03/29 10:15:42;;;;;;;2.20;1.60;;;;;;;4.49;45.71;100618.47;130920;1257;107978;-70
2023/03/29 10:18:49;;;;;;;8.30;3.20;;;;;;;4.58;45.20;100617.73;130875;1251;107797;-71
2023/03/29 10:21:58;;;;;;;14.90;4.90;;;;;;;4.66;44.63;100613.92;131069;1251;107120;-69
2023/03/29 10:25:04;;;;;;;3.90;2.20;;;;;;;4.72;43.64;100613.92;131120;1273;107810;-67
2023/03/29 10:28:16;;;;;;;7.20;2.60;;;;;;;4.74;43.06;100609.20;131035;1256;107519;-70
2023/03/29 10:31:24;;;;;;;4.10;2.40;;;;;;;4.79;44.02;100605.70;130871;1253;107519;-70
2023/03/29 10:34:30;;;;;;;8.90;3.80;;;;;;;4.85;44.32;100611.07;130938;1251;108176;-70
2023/03/29 10:37:39;;;;;;;4.70;2.30;;;;;;;4.89;42.73;100610.06;130987;1257;107317;-69
2023/03/29 10:40:46;;;;;;;5.00;2.60;;;;;;;4.91;42.38;100607.98;131027;1273;107120;-70
2023/03/29 10:43:53;;;;;;;4.90;2.50;;;;;;;4.93;43.65;100605.77;131211;1254;107527;-70
2023/03/29 10:47:09;;;;;;;5.30;2.50;;;;;;;4.95;44.32;100602.45;131175;1254;107887;-68
2023/03/29 10:50:16;;;;;;;4.00;2.40;;;;;;;5.02;44.75;100599.30;131122;1257;107601;-68
2023/03/29 10:53:26;;;;;;;7.60;2.40;;;;;;;5.10;44.75;100594.46;130955;1266;107476;-70
2023/03/29 10:56:38;;;;;;;8.00;2.90;;;;;;;5.17;44.34;100593.70;131125;1255;107590;-70
2023/03/29 10:59:53;;;;;;;4.20;2.50;;;;;;;5.21;43.24;100587.36;130988;1251;107553;-70
2023/03/29 11:03:27;;;;;;;4.50;2.50;;;;;;;5.22;39.78;100589.41;131265;1251;107373;-69
2023/03/29 11:06:40;;;;;;;3.60;2.10;;;;;;;5.19;41.37;100577.86;131125;1257;107253;-68
2023/03/29 11:09:50;;;;;;;;;;;;;;;5.18;41.04;100578.42;131138;1259;107914;-70
2023/03/29 11:13:04;;;;;;;5.40;2.90;;;;;;;5.29;43.45;100573.55;131146;1251;107346;-69
2023/03/29 11:16:24;;;;;;;12.40;6.90;;;;;;;5.40;42.16;100572.60;131175;1251;107928;-68
2023/03/29 11:19:53;;;;;;;6.80;4.70;;;;;;;5.48;39.23;100572.20;131039;1272;108133;-70
2023/03/29 11:23:07;;;;;;;4.70;2.90;;;;;;;5.46;43.13;100557.88;130876;1251;108020;-70
2023/03/29 11:26:19;;;;;;;8.30;3.60;;;;;;;5.50;43.62;100560.34;130845;1254;108277;-71
2023/03/29 11:29:32;;;;;;;6.30;2.70;;;;;;;5.59;42.45;100560.95;130884;1254;108050;-68
2023/03/29 11:32:48;;;;;;;9.00;3.60;;;;;;;5.67;42.16;100555.10;131286;1251;107480;-68
2023/03/29 11:35:58;;;;;;;6.20;3.30;;;;;;;5.70;42.48;100545.46;131238;1251;107546;-68
2023/03/29 11:39:12;;;;;;;5.60;3.20;;;;;;;5.77;43.43;100538.65;131178;1254;107902;-71
2023/03/29 11:42:24;;;;;;;4.50;2.90;;;;;;;5.86;42.48;100537.96;130989;1253;107397;-70
2023/03/29 11:45:36;;;;;;;4.50;2.70;;;;;;;5.86;41.16;100534.55;131085;1251;107762;-69
2023/03/29 11:48:48;;;;;;;5.80;2.80;;;;;;;5.90;42.75;100529.49;130936;1261;107919;-69
2023/03/29 11:52:01;;;;;;;9.90;4.20;;;;;;;5.99;42.93;100525.39;130933;1254;108140;-70
2023/03/29 11:55:13;;;;;;;8.20;3.60;;;;;;;6.06;43.07;100519.34;130894;1255;107286;-70
2023/03/29 11:58:23;;;;;;;5.40;3.60;;;;;;;6.13;42.84;100511.23;130969;1272;107219;-70
2023/03/29 12:01:34;;;;;;;7.00;3.30;;;;;;;6.19;40.54;100509.49;130885;1263;106947;-70
2023/03/29 12:04:46;;;;;;;6.70;3.30;;;;;;;6.30;41.97;100506.05;131116;1254;107375;-70
2023/03/29 12:07:56;;;;;;;3.60;2.60;;;;;;;6.37;42.18;100498.44;130837;1251;226370;-70
2023/03/29 12:11:08;;;;;;;5.10;2.80;;;;;;;6.42;40.79;100496.27;130877;1263;108530;-69
2023/03/29 12:14:17;;;;;;;6.00;2.50;;;;;;;6.45;41.86;100498.83;130955;1272;107258;-70
2023/03/29 12:17:28;;;;;;;5.60;2.60;;;;;;;6.51;41.15;100501.05;130995;1263;107552;-69
2023/03/29 12:20:38;;;;;;;3.40;2.60;;;;;;;6.52;41.11;100496.23;130952;1251;107959;-69
2023/03/29 12:23:46;;;;;;;5.70;2.90;;;;;;;6.46;40.99;100489.80;131036;1251;107466;-70
2023/03/29 12:27:19;;;;;;;4.40;2.70;;;;;;;6.47;42.32;100483.11;131125;1254;107524;-70
2023/03/29 12:30:49;;;;;;;6.20;3.10;;;;;;;6.55;41.78;100480.91;130998;1254;107564;-70
2023/03/29 12:34:15;;;;;;;4.10;2.50;;;;;;;6.65;42.29;100480.79;130906;1251;108186;-70
2023/03/29 12:37:45;;;;;;;6.40;3.00;;;;;;;6.72;41.54;100480.98;130972;1254;108031;-70
2023/03/29 12:41:18;;;;;;;3.70;2.50;;;;;;;6.76;41.69;100480.65;130893;1272;108225;-70
2023/03/29 12:44:49;;;;;;;3.90;2.40;;;;;;;6.81;42.51;100470.68;130956;1254;106576;-70
2023/03/29 12:48:02;;;;;;;4.50;2.20;;;;;;;6.87;42.20;100464.17;131290;1251;108050;-70
2023/03/29 12:51:14;;;;;;;4.10;2.20;;;;;;;6.91;41.66;100460.74;131091;1254;107811;-69
2023/03/29 12:54:25;;;;;;;7.30;3.10;;;;;;;6.92;41.32;100459.40;131254;1253;106437;-70
2023/03/29 12:57:42;;;;;;;5.90;3.00;;;;;;;6.95;42.01;100458.06;131228;1258;108097;-69
2023/03/29 13:00:55;;;;;;;4.90;2.70;;;;;;;7.00;41.83;100454.67;131242;1251;107946;-68
2023/03/29 13:04:18;;;;;;;3.20;2.40;;;;;;;7.06;41.33;100453.09;131188;1258;106217;-69
2023/03/29 13:07:33;;;;;;;5.10;3.20;;;;;;;7.08;41.42;100446.40;131078;1261;107211;-70
2023/03/29 13:10:42;;;;;;;4.10;2.60;;;;;;;7.10;41.06;100443.43;130899;1251;108717;-70
2023/03/29 13:13:52;;;;;;;4.70;2.50;;;;;;;7.14;41.30;100445.09;130862;1257;108083;-70
2023/03/29 13:17:03;;;;;;;4.70;2.50;;;;;;;7.18;41.48;100443.66;131008;1264;107389;-70
2023/03/29 13:20:29;;;;;;;5.00;2.70;;;;;;;7.21;41.48;100443.75;131153;1261;107842;-70
2023/03/29 13:23:46;;;;;;;4.30;2.80;;;;;;;7.23;41.74;100438.63;131040;1251;108552;-70
2023/03/29 13:27:00;;;;;;;3.90;2.50;;;;;;;7.27;41.79;100432.42;130731;1254;108143;-69
2023/03/29 13:30:27;;;;;;;4.00;2.70;;;;;;;7.30;41.82;100429.91;131119;1251;107369;-69
2023/03/29 13:33:51;;;;;;;3.50;2.50;;;;;;;7.31;41.81;100430.54;131226;1251;107379;-69
2023/03/29 13:37:06;;;;;;;4.00;3.00;;;;;;;7.33;41.89;100426.15;131147;1251;108069;-70
2023/03/29 13:40:42;;;;;;;8.20;5.20;;;;;;;7.33;41.28;100422.38;131350;1254;108235;-69
2023/03/29 13:43:54;;;;;;;5.30;3.00;;;;;;;7.36;41.50;100417.02;130787;1254;109207;-70
2023/03/29 13:47:27;;;;;;;4.80;2.70;;;;;;;7.39;41.39;100413.26;131170;1252;107259;-70
2023/03/29 13:50:39;;;;;;;5.50;3.20;;;;;;;7.38;40.92;100409.92;131048;1251;107586;-70
2023/03/29 13:53:50;;;;;;;4.70;2.90;;;;;;;7.37;40.35;100407.36;131046;1254;108216;-70
2023/03/29 13:57:10;;;;;;;3.80;2.50;;;;;;;7.40;41.52;100404.69;130784;1256;107337;-69
2023/03/29 14:00:22;;;;;;;4.50;2.70;;;;;;;7.43;40.39;100399.84;130974;1250;107992;-70
2023/03/29 14:03:29;;;;;;;4.60;3.10;;;;;;;7.46;41.45;100398.86;130978;1250;108051;-70
2023/03/29 14:06:37;;;;;;;7.00;5.00;;;;;;;7.47;41.23;100393.81;131069;1255;108079;-70
2023/03/29 14:09:49;;;;;;;10.30;7.40;;;;;;;7.48;41.46;100394.60;130819;1257;107489;-70
2023/03/29 14:12:56;;;;;;;9.60;6.50;;;;;;;7.50;41.06;100391.08;130842;1274;107678;-70
2023/03/29 14:16:05;;;;;;;121.90;53.40;;;;;;;7.53;41.19;100393.13;130773;1251;107455;-69
2023/03/29 14:19:17;;;;;;;78.20;31.60;;;;;;;7.55;40.89;100391.58;130841;1266;107785;-70
2023/03/29 14:22:23;;;;;;;38.60;31.30;;;;;;;7.57;40.86;100389.46;130842;1258;108147;-70
2023/03/29 14:25:31;;;;;;;252.70;220.50;;;;;;;7.57;41.21;100384.83;131242;1254;109322;-69
2023/03/29 14:28:37;;;;;;;38.20;26.50;;;;;;;7.57;41.65;100381.77;131017;1251;107392;-69
2023/03/29 14:31:43;;;;;;;16.30;11.20;;;;;;;7.59;41.78;100382.77;131471;1251;107681;-71
2023/03/29 14:34:51;;;;;;;9.90;6.20;;;;;;;7.60;41.65;100384.05;131949;1251;107868;-72